createdAt,value
2023-05-17T00:00:55.586Z,31.77
2023-05-17T00:03:23.884Z,30.40
2023-05-17T00:05:52.130Z,31.00
2023-05-17T00:08:20.357Z,31.10
2023-05-17T00:10:48.566Z,31.87
2023-05-17T00:13:18.427Z,29.60
2023-05-17T00:15:46.619Z,32.47
2023-05-17T00:18:14.973Z,31.10
2023-05-17T00:20:43.292Z,30.80
2023-05-17T00:23:11.480Z,30.20
2023-05-17T00:25:39.698Z,29.80
2023-05-17T00:28:07.873Z,30.17
2023-05-17T00:30:37.402Z,31.57
2023-05-17T00:33:05.709Z,29.37
2023-05-17T00:35:33.968Z,29.53
2023-05-17T00:38:02.244Z,30.70
2023-05-17T00:40:31.960Z,31.73
2023-05-17T00:43:00.157Z,29.80
2023-05-17T00:45:28.649Z,34.07
2023-05-17T00:47:58.743Z,30.70
2023-05-17T00:50:27.399Z,27.90
2023-05-17T00:52:55.728Z,28.77
2023-05-17T00:55:23.937Z,30.33
2023-05-17T00:57:52.992Z,28.80
2023-05-17T01:00:21.627Z,29.47
2023-05-17T01:03:10.035Z,30.10
2023-05-17T01:05:56.981Z,28.73
2023-05-17T01:08:43.775Z,27.50
2023-05-17T01:11:40.699Z,28.00
2023-05-17T01:14:39.911Z,28.83
2023-05-17T01:17:31.954Z,28.10
2023-05-17T01:20:24.759Z,27.37
2023-05-17T01:23:22.205Z,29.10
2023-05-17T01:26:13.026Z,28.33
2023-05-17T01:29:01.615Z,28.70
2023-05-17T01:31:50.075Z,28.90
2023-05-17T01:34:36.849Z,28.70
2023-05-17T01:37:23.663Z,30.27
2023-05-17T01:40:10.763Z,28.57
2023-05-17T01:43:01.521Z,27.00
2023-05-17T01:45:57.602Z,27.77
2023-05-17T01:48:50.317Z,28.10
2023-05-17T01:51:44.287Z,28.37
2023-05-17T01:54:36.413Z,28.57
2023-05-17T01:57:26.639Z,27.77
2023-05-17T02:00:15.039Z,27.70
2023-05-17T02:03:04.011Z,26.33
2023-05-17T02:05:50.832Z,25.97
2023-05-17T02:08:37.724Z,28.70
2023-05-17T02:11:24.299Z,27.30
2023-05-17T02:14:12.459Z,26.90
2023-05-17T02:16:59.717Z,27.77
2023-05-17T02:19:47.882Z,26.40
2023-05-17T02:22:34.555Z,26.73
2023-05-17T02:25:21.288Z,26.67
2023-05-17T02:28:08.093Z,27.40
2023-05-17T02:30:56.569Z,27.30
2023-05-17T02:33:43.691Z,26.07
2023-05-17T02:36:32.536Z,28.00
2023-05-17T02:39:19.181Z,26.33
2023-05-17T02:42:06.141Z,27.17
2023-05-17T02:44:53.099Z,27.10
2023-05-17T02:47:40.102Z,26.30
2023-05-17T02:50:26.731Z,26.43
2023-05-17T02:53:14.919Z,31.07
2023-05-17T02:56:01.704Z,27.47
2023-05-17T02:58:48.432Z,26.57
2023-05-17T03:01:36.230Z,26.80
2023-05-17T03:04:23.554Z,27.50
2023-05-17T03:07:10.466Z,27.40
2023-05-17T03:09:59.282Z,26.27
2023-05-17T03:12:49.984Z,26.77
2023-05-17T03:15:39.214Z,26.07
2023-05-17T03:18:26.013Z,26.17
2023-05-17T03:21:13.052Z,25.50
2023-05-17T03:23:59.772Z,26.07
2023-05-17T03:26:47.884Z,25.77
2023-05-17T03:29:34.660Z,25.97
2023-05-17T03:32:21.402Z,24.37
2023-05-17T03:35:09.040Z,25.97
2023-05-17T03:37:56.678Z,26.10
2023-05-17T03:40:44.179Z,25.77
2023-05-17T03:43:32.400Z,26.27
2023-05-17T03:46:20.214Z,24.67
2023-05-17T03:49:08.034Z,25.43
2023-05-17T03:51:55.340Z,26.43
2023-05-17T03:54:42.041Z,25.60
2023-05-17T03:57:28.861Z,24.83
2023-05-17T04:00:21.852Z,25.67
2023-05-17T04:03:09.274Z,25.70
2023-05-17T04:05:56.278Z,32.13
2023-05-17T04:08:43.135Z,25.97
2023-05-17T04:11:29.896Z,25.37
2023-05-17T04:14:16.563Z,27.80
2023-05-17T04:17:04.810Z,23.80
2023-05-17T04:19:51.737Z,26.23
2023-05-17T04:22:39.171Z,25.27
2023-05-17T04:25:25.989Z,25.80
2023-05-17T04:28:12.731Z,26.00
2023-05-17T04:30:59.395Z,27.57
2023-05-17T04:33:48.106Z,25.17
2023-05-17T04:36:35.429Z,24.70
2023-05-17T04:39:23.230Z,25.40
2023-05-17T04:42:10.205Z,25.17
2023-05-17T04:45:01.295Z,25.50
2023-05-17T04:47:52.851Z,24.90
2023-05-17T04:50:41.951Z,25.50
2023-05-17T04:53:30.732Z,26.17
2023-05-17T04:56:18.313Z,25.27
2023-05-17T04:59:05.495Z,25.00
2023-05-17T05:01:52.304Z,25.57
2023-05-17T05:04:39.327Z,24.90
2023-05-17T05:07:27.855Z,25.20
2023-05-17T05:10:15.086Z,25.83
2023-05-17T05:13:02.449Z,24.80
2023-05-17T05:15:49.377Z,24.17
2023-05-17T05:18:36.584Z,25.10
2023-05-17T05:21:23.984Z,25.20
2023-05-17T05:24:12.126Z,26.20
2023-05-17T05:26:58.939Z,25.50
2023-05-17T05:29:46.793Z,24.20
2023-05-17T05:32:33.950Z,24.87
2023-05-17T05:35:20.971Z,25.20
2023-05-17T05:38:08.781Z,25.10
2023-05-17T05:40:57.563Z,25.10
2023-05-17T05:43:44.340Z,25.00
2023-05-17T05:46:31.058Z,25.40
2023-05-17T05:49:18.852Z,25.27
2023-05-17T05:52:05.949Z,25.87
2023-05-17T05:54:52.964Z,26.27
2023-05-17T05:57:40.984Z,25.30
2023-05-17T06:00:28.805Z,25.20
2023-05-17T06:03:16.062Z,23.97
2023-05-17T06:06:02.662Z,26.37
2023-05-17T06:08:49.300Z,24.33
2023-05-17T06:11:36.085Z,26.77
2023-05-17T06:14:24.085Z,26.53
2023-05-17T06:17:10.794Z,25.07
2023-05-17T06:19:57.715Z,24.27
2023-05-17T06:22:44.637Z,24.87
2023-05-17T06:25:31.100Z,27.17
2023-05-17T06:28:18.623Z,25.27
2023-05-17T06:31:06.793Z,24.80
2023-05-17T06:33:53.287Z,26.03
2023-05-17T06:36:40.733Z,25.80
2023-05-17T06:39:27.975Z,25.67
2023-05-17T06:42:14.766Z,24.47
2023-05-17T06:45:01.954Z,25.33
2023-05-17T06:47:50.467Z,24.30
2023-05-17T06:50:37.174Z,25.27
2023-05-17T06:53:23.871Z,25.87
2023-05-17T06:56:11.030Z,25.27
2023-05-17T06:58:57.918Z,24.97
2023-05-17T07:01:44.620Z,24.70
2023-05-17T07:04:32.787Z,25.70
2023-05-17T07:07:19.542Z,25.93
2023-05-17T07:10:07.462Z,25.77
2023-05-17T07:12:54.565Z,25.37
2023-05-17T07:15:41.289Z,27.00
2023-05-17T07:18:28.130Z,27.20
2023-05-17T07:21:16.118Z,27.60
2023-05-17T07:24:03.218Z,27.70
2023-05-17T07:26:52.200Z,27.07
2023-05-17T07:29:39.369Z,26.87
2023-05-17T07:32:26.016Z,27.40
2023-05-17T07:35:12.930Z,27.10
2023-05-17T07:38:00.950Z,26.47
2023-05-17T07:40:47.694Z,27.77
2023-05-17T07:43:34.536Z,27.10
2023-05-17T07:46:21.556Z,27.60
2023-05-17T07:49:08.500Z,28.90
2023-05-17T07:51:55.701Z,27.23
2023-05-17T07:54:43.714Z,29.10
2023-05-17T07:57:30.408Z,27.57
2023-05-17T08:00:19.363Z,27.47
2023-05-17T08:03:06.300Z,26.90
2023-05-17T08:05:53.234Z,27.20
2023-05-17T08:08:39.996Z,28.47
2023-05-17T08:11:28.501Z,27.27
2023-05-17T08:14:15.669Z,27.40
2023-05-17T08:17:02.333Z,31.67
2023-05-17T08:19:50.348Z,27.43
2023-05-17T08:22:36.917Z,28.47
2023-05-17T08:25:23.671Z,28.97
2023-05-17T08:28:12.532Z,30.90
2023-05-17T08:30:59.382Z,28.63
2023-05-17T08:33:46.037Z,29.97
2023-05-17T08:36:32.866Z,33.60
2023-05-17T08:39:20.521Z,28.70
2023-05-17T08:42:08.994Z,30.30
2023-05-17T08:44:57.101Z,31.10
2023-05-17T08:47:44.382Z,30.87
2023-05-17T08:50:32.387Z,30.40
2023-05-17T08:53:19.191Z,32.30
2023-05-17T08:56:07.134Z,30.97
2023-05-17T08:58:58.125Z,29.57
2023-05-17T09:01:48.252Z,32.20
2023-05-17T09:04:34.827Z,30.43
2023-05-17T09:07:21.787Z,31.70
2023-05-17T09:10:09.814Z,32.90
2023-05-17T09:12:56.420Z,31.57
2023-05-17T09:15:44.048Z,32.60
2023-05-17T09:18:33.399Z,32.90
2023-05-17T09:21:20.031Z,33.37
2023-05-17T09:24:08.625Z,33.70
2023-05-17T09:26:55.588Z,33.37
2023-05-17T09:29:42.276Z,33.00
2023-05-17T09:32:28.905Z,31.90
2023-05-17T09:35:17.001Z,35.00
2023-05-17T09:38:08.579Z,34.27
2023-05-17T09:40:55.388Z,33.40
2023-05-17T09:43:41.913Z,32.87
2023-05-17T09:46:28.793Z,40.60
2023-05-17T09:49:16.471Z,34.10
2023-05-17T09:52:09.105Z,35.67
2023-05-17T09:54:57.513Z,38.30
2023-05-17T09:57:44.249Z,32.80
2023-05-17T10:00:32.389Z,34.57
2023-05-17T10:03:19.229Z,34.97
2023-05-17T10:06:09.889Z,34.07
2023-05-17T10:09:00.038Z,35.47
2023-05-17T10:11:47.888Z,35.00
2023-05-17T10:14:36.637Z,34.50
2023-05-17T10:17:23.812Z,33.90
2023-05-17T10:20:11.875Z,34.07
2023-05-17T10:22:59.395Z,34.97
2023-05-17T10:25:47.579Z,35.73
2023-05-17T10:28:34.432Z,36.40
2023-05-17T10:31:21.754Z,35.87
2023-05-17T10:34:09.936Z,33.90
2023-05-17T10:36:57.557Z,36.23
2023-05-17T10:39:46.856Z,35.40
2023-05-17T10:42:35.219Z,37.77
2023-05-17T10:45:22.905Z,38.03
2023-05-17T10:48:10.348Z,33.83
2023-05-17T10:51:01.872Z,36.63
2023-05-17T10:54:11.647Z,36.87
2023-05-17T10:57:06.422Z,37.03
2023-05-17T10:59:59.743Z,36.37
2023-05-17T11:02:48.702Z,37.87
2023-05-17T11:05:36.351Z,36.80
2023-05-17T11:08:23.242Z,38.10
2023-05-17T11:11:11.570Z,36.73
2023-05-17T11:13:59.117Z,36.97
2023-05-17T11:16:47.214Z,36.57
2023-05-17T11:19:34.029Z,37.00
2023-05-17T11:22:24.111Z,36.03
2023-05-17T11:25:13.252Z,38.57
2023-05-17T11:28:00.243Z,37.70
2023-05-17T11:30:51.655Z,37.47
2023-05-17T11:33:43.637Z,37.60
2023-05-17T11:36:30.714Z,37.37
2023-05-17T11:39:18.462Z,36.43
2023-05-17T11:42:05.684Z,37.57
2023-05-17T11:44:52.734Z,37.50
2023-05-17T11:47:42.996Z,37.17
2023-05-17T11:50:31.315Z,38.37
2023-05-17T11:53:18.233Z,37.33
2023-05-17T11:56:05.397Z,37.87
2023-05-17T11:58:52.862Z,39.47
2023-05-17T12:01:46.828Z,37.40
2023-05-17T12:04:37.359Z,35.27
2023-05-17T12:07:26.036Z,38.77
2023-05-17T12:10:14.468Z,37.37
2023-05-17T12:13:02.039Z,38.57
2023-05-17T12:15:52.975Z,36.93
2023-05-17T12:18:40.513Z,38.47
2023-05-17T12:21:27.801Z,38.47
2023-05-17T12:24:16.304Z,39.10
2023-05-17T12:27:03.031Z,38.17
2023-05-17T12:29:49.708Z,36.27
2023-05-17T12:32:36.343Z,40.07
2023-05-17T12:35:23.102Z,38.40
2023-05-17T12:38:11.351Z,37.57
2023-05-17T12:41:00.537Z,36.57
2023-05-17T12:43:47.555Z,37.70
2023-05-17T12:46:34.663Z,36.87
2023-05-17T12:49:22.734Z,36.27
2023-05-17T12:52:11.568Z,37.30
2023-05-17T12:55:00.065Z,41.33
2023-05-17T12:57:51.739Z,37.43
2023-05-17T13:00:38.453Z,39.10
2023-05-17T13:03:25.349Z,38.73
2023-05-17T13:06:12.015Z,38.50
2023-05-17T13:09:02.085Z,37.80
2023-05-17T13:11:52.379Z,37.40
2023-05-17T13:14:45.768Z,38.70
2023-05-17T13:17:36.721Z,40.57
2023-05-17T13:20:23.500Z,39.07
2023-05-17T13:23:10.731Z,39.20
2023-05-17T13:25:57.511Z,38.40
2023-05-17T13:28:44.464Z,39.17
2023-05-17T13:31:13.957Z,39.57
2023-05-17T13:33:42.378Z,40.50
2023-05-17T13:36:10.638Z,39.40
2023-05-17T13:38:38.697Z,40.47
2023-05-17T13:41:09.401Z,39.03
2023-05-17T13:43:37.488Z,39.67
2023-05-17T13:46:05.562Z,42.57
2023-05-17T13:48:35.157Z,39.37
2023-05-17T13:51:03.316Z,38.87
2023-05-17T13:53:31.355Z,39.60
2023-05-17T13:55:59.491Z,39.60
2023-05-17T13:58:27.610Z,39.20
2023-05-17T14:00:55.754Z,40.07
2023-05-17T14:03:23.917Z,40.60
2023-05-17T14:05:54.332Z,40.43
2023-05-17T14:08:22.437Z,43.43
2023-05-17T14:10:50.477Z,40.40
2023-05-17T14:13:18.795Z,40.80
2023-05-17T14:15:47.012Z,41.97
2023-05-17T14:18:15.463Z,40.03
2023-05-17T14:20:43.778Z,40.47
2023-05-17T14:23:13.469Z,41.03
2023-05-17T14:25:43.745Z,41.97
2023-05-17T14:28:13.632Z,40.27
2023-05-17T14:30:42.239Z,40.87
2023-05-17T14:33:10.600Z,42.80
2023-05-17T14:35:39.099Z,40.50
2023-05-17T14:38:07.320Z,40.07
2023-05-17T14:40:36.868Z,40.70
2023-05-17T14:43:05.116Z,39.30
2023-05-17T14:45:33.299Z,42.00
2023-05-17T14:48:01.690Z,41.40
2023-05-17T14:50:32.853Z,45.07
2023-05-17T14:53:01.171Z,42.43
2023-05-17T14:55:30.106Z,43.20
2023-05-17T14:58:01.800Z,41.57
2023-05-17T15:00:30.172Z,41.10
2023-05-17T15:02:58.513Z,40.73
2023-05-17T15:05:26.814Z,40.53
2023-05-17T15:07:55.051Z,44.17
2023-05-17T15:10:23.919Z,42.27
2023-05-17T15:12:52.381Z,43.50
2023-05-17T15:15:22.251Z,42.63
2023-05-17T15:17:50.565Z,42.00
2023-05-17T15:20:20.150Z,43.73
2023-05-17T15:22:48.640Z,41.67
2023-05-17T15:25:17.289Z,40.73
2023-05-17T15:27:45.603Z,42.30
2023-05-17T15:30:15.007Z,39.50
2023-05-17T15:32:44.630Z,40.90
2023-05-17T15:35:12.927Z,41.60
2023-05-17T15:37:41.320Z,40.10
2023-05-17T15:40:11.002Z,40.47
2023-05-17T15:42:39.197Z,41.40
2023-05-17T15:45:08.509Z,40.67
2023-05-17T15:47:43.105Z,40.73
2023-05-17T15:50:13.188Z,39.73
2023-05-17T15:52:41.701Z,40.90
2023-05-17T15:55:10.949Z,39.97
2023-05-17T15:57:39.372Z,41.13
2023-05-17T16:00:09.115Z,40.47
2023-05-17T16:02:37.381Z,45.33
2023-05-17T16:05:06.499Z,40.00
2023-05-17T16:07:36.071Z,40.77
2023-05-17T16:10:04.377Z,41.43
2023-05-17T16:12:32.645Z,41.67
2023-05-17T16:15:00.831Z,42.23
2023-05-17T16:17:29.086Z,42.10
2023-05-17T16:19:57.358Z,40.77
2023-05-17T16:22:25.683Z,41.37
2023-05-17T16:24:55.475Z,40.80
2023-05-17T16:27:23.740Z,43.40
2023-05-17T16:29:51.965Z,40.03
2023-05-17T16:32:20.315Z,40.70
2023-05-17T16:34:48.593Z,40.30
2023-05-17T16:37:16.877Z,44.30
2023-05-17T16:39:45.070Z,40.77
2023-05-17T16:42:15.203Z,41.90
2023-05-17T16:44:43.424Z,41.30
2023-05-17T16:47:11.911Z,41.60
2023-05-17T16:49:41.191Z,42.33
2023-05-17T16:52:09.787Z,41.17
2023-05-17T16:54:38.688Z,40.77
2023-05-17T16:57:08.536Z,40.77
2023-05-17T16:59:38.506Z,39.07
2023-05-17T17:02:07.596Z,40.67
2023-05-17T17:04:36.996Z,40.87
2023-05-17T17:07:05.699Z,41.90
2023-05-17T17:09:33.928Z,39.47
2023-05-17T17:12:09.585Z,41.13
2023-05-17T17:14:46.944Z,39.80
2023-05-17T17:17:15.328Z,40.40
2023-05-17T17:19:43.612Z,39.10
2023-05-17T17:22:12.099Z,40.20
2023-05-17T17:24:40.328Z,37.77
2023-05-17T17:27:08.626Z,38.80
2023-05-17T17:29:37.475Z,37.90
2023-05-17T17:32:08.534Z,39.07
2023-05-17T17:34:36.768Z,39.17
2023-05-17T17:37:05.026Z,39.60
2023-05-17T17:39:33.271Z,40.53
2023-05-17T17:42:01.583Z,38.47
2023-05-17T17:44:29.774Z,38.50
2023-05-17T17:46:58.065Z,38.50
2023-05-17T17:49:27.706Z,39.07
2023-05-17T17:51:55.895Z,38.20
2023-05-17T17:54:24.103Z,38.63
2023-05-17T17:56:52.285Z,35.80
2023-05-17T17:59:20.441Z,42.97
2023-05-17T18:01:48.772Z,38.80
2023-05-17T18:04:17.135Z,36.47
2023-05-17T18:06:46.802Z,37.30
2023-05-17T18:09:15.126Z,34.87
2023-05-17T18:11:43.418Z,39.53
2023-05-17T18:14:12.184Z,35.47
2023-05-17T18:16:40.665Z,38.10
2023-05-17T18:19:08.995Z,34.97
2023-05-17T18:21:37.312Z,33.07
2023-05-17T18:24:07.623Z,35.57
2023-05-17T18:26:36.237Z,36.37
2023-05-17T18:29:05.909Z,34.87
2023-05-17T18:31:34.188Z,35.40
2023-05-17T18:34:02.457Z,33.40
2023-05-17T18:36:30.985Z,34.07
2023-05-17T18:39:00.890Z,34.33
2023-05-17T18:41:30.461Z,34.80
2023-05-17T18:44:01.821Z,33.27
2023-05-17T18:46:30.581Z,33.10
2023-05-17T18:48:58.813Z,32.17
2023-05-17T18:51:27.953Z,33.83
2023-05-17T18:53:56.182Z,34.47
2023-05-17T18:56:25.211Z,35.00
2023-05-17T18:58:55.474Z,33.60
2023-05-17T19:01:23.892Z,32.97
2023-05-17T19:03:55.190Z,32.73
2023-05-17T19:06:24.077Z,32.67
2023-05-17T19:08:52.513Z,32.67
2023-05-17T19:11:21.054Z,31.30
2023-05-17T19:13:49.848Z,34.03
2023-05-17T19:16:19.438Z,31.47
2023-05-17T19:18:47.698Z,32.87
2023-05-17T19:21:15.989Z,32.17
2023-05-17T19:23:44.707Z,32.10
2023-05-17T19:26:12.923Z,30.80
2023-05-17T19:28:41.401Z,30.40
2023-05-17T19:31:09.646Z,31.40
2023-05-17T19:33:39.191Z,31.17
2023-05-17T19:36:07.561Z,32.17
2023-05-17T19:38:35.878Z,30.87
2023-05-17T19:41:04.095Z,29.77
2023-05-17T19:43:35.818Z,28.93
2023-05-17T19:46:04.424Z,30.30
2023-05-17T19:48:32.681Z,31.40
2023-05-17T19:51:02.192Z,37.73
2023-05-17T19:53:40.263Z,30.40
2023-05-17T19:56:12.325Z,30.17
2023-05-17T19:58:40.533Z,30.83
2023-05-17T20:01:08.725Z,30.87
2023-05-17T20:03:37.111Z,30.30
2023-05-17T20:06:06.907Z,30.37
2023-05-17T20:08:35.983Z,27.07
2023-05-17T20:11:04.209Z,30.53
2023-05-17T20:13:34.284Z,29.17
2023-05-17T20:16:02.632Z,30.03
2023-05-17T20:18:31.722Z,31.50
2023-05-17T20:20:59.900Z,28.30
2023-05-17T20:23:29.523Z,28.60
2023-05-17T20:25:57.897Z,28.57
2023-05-17T20:28:26.229Z,29.67
2023-05-17T20:30:55.703Z,28.07
2023-05-17T20:33:26.650Z,27.77
2023-05-17T20:35:55.218Z,28.40
2023-05-17T20:38:23.397Z,28.40
2023-05-17T20:40:53.004Z,27.60
2023-05-17T20:43:21.157Z,29.97
2023-05-17T20:45:49.912Z,32.33
2023-05-17T20:48:18.503Z,28.07
2023-05-17T20:50:47.324Z,27.80
2023-05-17T20:53:15.472Z,27.37
2023-05-17T20:55:44.475Z,29.17
2023-05-17T20:58:14.025Z,28.17
2023-05-17T21:00:42.806Z,27.40
2023-05-17T21:03:11.406Z,28.37
2023-05-17T21:05:39.708Z,32.17
2023-05-17T21:08:08.291Z,26.00
2023-05-17T21:10:40.569Z,29.47
2023-05-17T21:13:09.591Z,27.03
2023-05-17T21:15:39.273Z,26.10
2023-05-17T21:18:07.699Z,28.17
2023-05-17T21:20:36.145Z,26.07
2023-05-17T21:23:04.457Z,26.67
2023-05-17T21:25:32.902Z,28.57
2023-05-17T21:28:01.180Z,27.70
2023-05-17T21:30:29.696Z,26.63
2023-05-17T21:32:59.561Z,30.50
2023-05-17T21:35:27.867Z,26.73
2023-05-17T21:37:56.145Z,26.47
2023-05-17T21:40:24.362Z,25.80
2023-05-17T21:42:52.522Z,26.40
2023-05-17T21:45:21.027Z,25.17
2023-05-17T21:47:49.241Z,26.70
2023-05-17T21:50:18.953Z,26.70
2023-05-17T21:52:47.160Z,25.20
2023-05-17T21:55:15.373Z,25.03
2023-05-17T21:57:43.582Z,27.13
2023-05-17T22:00:15.266Z,26.07
2023-05-17T22:02:44.618Z,24.87
2023-05-17T22:05:13.294Z,26.07
2023-05-17T22:07:43.987Z,26.60
2023-05-17T22:10:12.678Z,26.20
2023-05-17T22:12:40.949Z,26.33
2023-05-17T22:15:10.972Z,26.27
2023-05-17T22:17:48.543Z,25.70
2023-05-17T22:20:23.704Z,24.50
2023-05-17T22:22:53.548Z,26.17
2023-05-17T22:25:21.929Z,25.60
2023-05-17T22:27:50.124Z,25.17
2023-05-17T22:30:18.451Z,24.30
2023-05-17T22:32:46.794Z,24.77
2023-05-17T22:35:15.112Z,25.33
2023-05-17T22:37:43.349Z,24.77
2023-05-17T22:40:13.799Z,24.70
2023-05-17T22:42:43.207Z,24.60
2023-05-17T22:45:14.518Z,24.17
2023-05-17T22:47:43.619Z,24.20
2023-05-17T22:50:14.471Z,24.40
2023-05-17T22:52:42.777Z,24.37
2023-05-17T22:55:12.511Z,23.87
2023-05-17T22:57:40.996Z,25.00
2023-05-17T23:00:11.422Z,25.20
2023-05-17T23:02:39.895Z,23.70
2023-05-17T23:05:08.728Z,24.70
2023-05-17T23:07:38.453Z,24.60
2023-05-17T23:10:08.334Z,25.30
2023-05-17T23:12:38.674Z,23.97
2023-05-17T23:15:08.294Z,23.57
2023-05-17T23:17:39.017Z,23.20
2023-05-17T23:20:09.968Z,27.93
2023-05-17T23:22:38.987Z,23.80
2023-05-17T23:25:07.920Z,23.27
2023-05-17T23:27:37.565Z,23.77
2023-05-17T23:30:07.390Z,24.00
2023-05-17T23:32:35.585Z,23.13
2023-05-17T23:35:04.834Z,23.33
2023-05-17T23:37:35.040Z,22.77
2023-05-17T23:40:04.723Z,24.37
2023-05-17T23:42:33.006Z,23.10
2023-05-17T23:45:02.913Z,22.90
2023-05-17T23:47:33.624Z,23.20
2023-05-17T23:50:02.988Z,23.00
2023-05-17T23:52:32.574Z,23.17
2023-05-17T23:55:01.602Z,23.50
2023-05-17T23:57:30.452Z,24.03
2023-05-17T23:59:58.675Z,24.70
